createdAt,value
2022-09-25T00:02:01.528Z,85.13
2022-09-25T00:04:29.846Z,85.08
2022-09-25T00:06:56.701Z,85.18
2022-09-25T00:09:23.731Z,85.50
2022-09-25T00:11:50.887Z,85.74
2022-09-25T00:14:17.723Z,85.98
2022-09-25T00:16:44.727Z,85.73
2022-09-25T00:19:38.101Z,86.02
2022-09-25T00:22:05.074Z,86.08
2022-09-25T00:24:32.272Z,85.99
2022-09-25T00:27:00.147Z,86.64
2022-09-25T00:29:26.843Z,86.40
2022-09-25T00:31:54.925Z,86.51
2022-09-25T00:34:21.686Z,86.53
2022-09-25T00:36:48.404Z,86.88
2022-09-25T00:39:15.370Z,87.31
2022-09-25T00:41:42.099Z,86.32
2022-09-25T00:44:27.526Z,87.19
2022-09-25T00:46:54.496Z,87.09
2022-09-25T00:49:24.522Z,86.76
2022-09-25T00:51:54.619Z,87.22
2022-09-25T00:54:27.860Z,87.38
2022-09-25T00:56:55.386Z,86.98
2022-09-25T00:59:25.034Z,86.57
2022-09-25T01:01:52.464Z,87.54
2022-09-25T01:04:20.027Z,87.04
2022-09-25T01:06:46.853Z,87.58
2022-09-25T01:09:14.101Z,87.75
2022-09-25T01:11:40.800Z,88.04
2022-09-25T01:14:09.369Z,87.33
2022-09-25T01:16:54.600Z,87.87
2022-09-25T01:19:24.154Z,88.21
2022-09-25T01:21:54.651Z,87.79
2022-09-25T01:24:24.649Z,87.75
2022-09-25T01:27:10.710Z,87.77
2022-09-25T01:29:41.397Z,87.05
2022-09-25T01:32:18.351Z,87.29
2022-09-25T01:35:03.921Z,87.91
2022-09-25T01:37:50.566Z,87.29
2022-09-25T01:40:23.020Z,87.76
2022-09-25T01:42:54.051Z,87.55
2022-09-25T01:45:35.138Z,87.25
2022-09-25T01:48:03.734Z,87.59
2022-09-25T01:50:43.190Z,87.84
2022-09-25T01:53:12.977Z,87.86
2022-09-25T01:55:43.747Z,87.66
2022-09-25T01:58:24.083Z,87.71
2022-09-25T02:00:55.521Z,87.64
2022-09-25T02:03:27.877Z,87.28
2022-09-25T02:06:01.343Z,88.31
2022-09-25T02:08:51.201Z,87.60
2022-09-25T02:11:18.126Z,87.84
2022-09-25T02:13:52.345Z,87.63
2022-09-25T02:16:22.326Z,87.49
2022-09-25T02:19:08.986Z,87.84
2022-09-25T02:21:58.984Z,87.05
2022-09-25T02:24:32.279Z,87.18
2022-09-25T02:26:59.638Z,86.31
2022-09-25T02:29:26.459Z,86.52
2022-09-25T02:32:03.624Z,86.65
2022-09-25T02:34:31.472Z,86.10
2022-09-25T02:36:58.777Z,86.58
2022-09-25T02:39:27.443Z,85.90
2022-09-25T02:42:13.406Z,86.58
2022-09-25T02:44:43.597Z,85.98
2022-09-25T02:47:22.750Z,86.70
2022-09-25T02:49:49.476Z,87.23
2022-09-25T02:52:24.588Z,87.17
2022-09-25T02:55:02.522Z,86.98
2022-09-25T02:57:33.761Z,86.76
2022-09-25T03:00:03.724Z,87.25
2022-09-25T03:02:32.962Z,87.80
2022-09-25T03:05:00.769Z,86.92
2022-09-25T03:07:27.810Z,86.10
2022-09-25T03:09:56.104Z,86.54
2022-09-25T03:12:22.855Z,86.65
2022-09-25T03:14:49.645Z,86.68
2022-09-25T03:17:17.691Z,87.30
2022-09-25T03:19:44.555Z,86.82
2022-09-25T03:22:12.103Z,86.23
2022-09-25T03:24:39.048Z,86.71
2022-09-25T03:27:05.826Z,86.49
2022-09-25T03:29:32.760Z,86.50
2022-09-25T03:31:59.718Z,85.07
2022-09-25T03:34:26.409Z,85.39
2022-09-25T03:36:53.156Z,86.17
2022-09-25T03:39:20.175Z,85.68
2022-09-25T03:41:47.905Z,85.95
2022-09-25T03:44:15.108Z,86.66
2022-09-25T03:46:42.326Z,86.46
2022-09-25T03:49:10.675Z,85.79
2022-09-25T03:51:38.926Z,85.72
2022-09-25T03:54:06.036Z,85.64
2022-09-25T03:56:33.109Z,85.96
2022-09-25T03:59:00.156Z,85.46
2022-09-25T04:01:27.840Z,85.29
2022-09-25T04:03:55.012Z,85.97
2022-09-25T04:06:24.199Z,86.21
2022-09-25T04:08:51.877Z,85.78
2022-09-25T04:11:19.564Z,85.99
2022-09-25T04:13:46.731Z,86.02
2022-09-25T04:16:14.595Z,85.65
2022-09-25T04:18:43.022Z,86.94
2022-09-25T04:21:11.602Z,86.58
2022-09-25T04:23:39.127Z,85.59
2022-09-25T04:26:06.547Z,84.55
2022-09-25T04:28:33.492Z,84.69
2022-09-25T04:31:00.740Z,84.58
2022-09-25T04:33:46.393Z,84.53
2022-09-25T04:36:14.595Z,84.66
2022-09-25T04:38:41.323Z,84.15
2022-09-25T04:41:08.309Z,84.00
2022-09-25T04:43:35.469Z,84.09
2022-09-25T04:46:03.206Z,83.48
2022-09-25T04:48:30.287Z,83.50
2022-09-25T04:50:58.286Z,83.31
2022-09-25T04:53:26.655Z,83.12
2022-09-25T04:55:54.463Z,83.03
2022-09-25T04:58:21.871Z,82.60
2022-09-25T05:00:49.295Z,81.83
2022-09-25T05:03:16.235Z,82.32
2022-09-25T05:05:43.409Z,81.90
2022-09-25T05:08:10.171Z,81.10
2022-09-25T05:10:39.768Z,81.29
2022-09-25T05:13:09.134Z,81.33
2022-09-25T05:15:36.274Z,81.34
2022-09-25T05:18:04.519Z,80.97
2022-09-25T05:20:32.075Z,80.33
2022-09-25T05:22:58.994Z,79.95
2022-09-25T05:25:26.782Z,79.70
2022-09-25T05:27:55.970Z,80.19
2022-09-25T05:30:23.275Z,80.55
2022-09-25T05:32:50.986Z,80.29
2022-09-25T05:35:19.161Z,79.19
2022-09-25T05:37:46.070Z,79.33
2022-09-25T05:40:15.745Z,79.22
2022-09-25T05:42:44.287Z,78.69
2022-09-25T05:45:11.963Z,77.32
2022-09-25T05:47:39.419Z,76.96
2022-09-25T05:50:07.179Z,76.73
2022-09-25T05:52:34.170Z,76.01
2022-09-25T05:55:03.608Z,76.21
2022-09-25T05:57:31.284Z,76.41
2022-09-25T05:59:59.086Z,76.33
2022-09-25T06:02:26.059Z,76.97
2022-09-25T06:04:53.140Z,76.06
2022-09-25T06:07:22.147Z,76.70
2022-09-25T06:09:49.152Z,76.42
2022-09-25T06:12:16.234Z,76.42
2022-09-25T06:14:43.221Z,75.66
2022-09-25T06:17:12.380Z,75.87
2022-09-25T06:19:39.468Z,76.15
2022-09-25T06:22:06.362Z,75.54
2022-09-25T06:24:33.316Z,75.36
2022-09-25T06:27:00.467Z,75.22
2022-09-25T06:29:27.309Z,75.54
2022-09-25T06:31:54.193Z,75.53
2022-09-25T06:34:21.293Z,76.30
2022-09-25T06:36:48.172Z,74.95
2022-09-25T06:39:15.188Z,74.62
2022-09-25T06:41:42.478Z,74.57
2022-09-25T06:44:09.473Z,73.79
2022-09-25T06:46:36.996Z,73.45
2022-09-25T06:49:04.278Z,72.96
2022-09-25T06:51:34.507Z,73.45
2022-09-25T06:54:01.586Z,72.59
2022-09-25T06:56:28.708Z,72.15
2022-09-25T06:58:55.772Z,70.69
2022-09-25T07:01:22.787Z,71.75
2022-09-25T07:03:49.910Z,70.93
2022-09-25T07:06:16.723Z,70.41
2022-09-25T07:08:44.249Z,69.96
2022-09-25T07:11:15.174Z,69.59
2022-09-25T07:13:42.742Z,69.51
2022-09-25T07:16:14.428Z,68.44
2022-09-25T07:18:41.708Z,68.35
2022-09-25T07:21:11.532Z,67.91
2022-09-25T07:23:40.237Z,67.25
2022-09-25T07:26:09.943Z,67.56
2022-09-25T07:28:39.326Z,66.77
2022-09-25T07:31:17.734Z,68.30
2022-09-25T07:33:47.284Z,68.32
2022-09-25T07:36:15.720Z,66.80
2022-09-25T07:38:42.736Z,65.80
2022-09-25T07:41:12.100Z,65.83
2022-09-25T07:43:43.979Z,65.79
2022-09-25T07:46:11.937Z,65.13
2022-09-25T07:48:39.638Z,63.58
2022-09-25T07:51:09.190Z,64.26
2022-09-25T07:53:38.861Z,63.06
2022-09-25T07:56:07.456Z,63.55
2022-09-25T07:58:38.773Z,63.60
2022-09-25T08:01:08.981Z,63.64
2022-09-25T08:03:36.667Z,62.95
2022-09-25T08:06:04.306Z,62.96
2022-09-25T08:08:33.350Z,62.90
2022-09-25T08:11:04.480Z,62.47
2022-09-25T08:13:32.769Z,61.66
2022-09-25T08:16:14.680Z,60.96
2022-09-25T08:18:46.303Z,59.97
2022-09-25T08:21:15.953Z,59.56
2022-09-25T08:23:48.010Z,58.49
2022-09-25T08:26:16.645Z,59.09
2022-09-25T08:28:44.318Z,57.23
2022-09-25T08:31:11.498Z,57.43
2022-09-25T08:33:40.797Z,56.82
2022-09-25T08:36:10.040Z,56.58
2022-09-25T08:38:38.530Z,56.03
2022-09-25T08:41:11.233Z,56.30
2022-09-25T08:43:43.957Z,55.35
2022-09-25T08:46:41.741Z,55.47
2022-09-25T08:49:12.072Z,53.64
2022-09-25T08:51:45.761Z,53.96
2022-09-25T08:54:21.666Z,54.03
2022-09-25T08:57:01.775Z,54.27
2022-09-25T08:59:32.535Z,54.20
2022-09-25T09:02:03.367Z,52.90
2022-09-25T09:04:33.531Z,52.75
2022-09-25T09:07:26.408Z,52.01
2022-09-25T09:10:03.169Z,50.06
2022-09-25T09:12:40.039Z,50.71
2022-09-25T09:15:29.969Z,50.12
2022-09-25T09:17:58.965Z,48.53
2022-09-25T09:20:43.390Z,48.20
2022-09-25T09:23:16.099Z,48.54
2022-09-25T09:25:54.915Z,47.47
2022-09-25T09:28:24.770Z,47.59
2022-09-25T09:31:21.101Z,45.63
2022-09-25T09:33:56.071Z,44.50
2022-09-25T09:36:43.051Z,44.71
2022-09-25T09:39:16.201Z,43.41
2022-09-25T09:42:01.868Z,42.11
2022-09-25T09:44:50.394Z,39.76
2022-09-25T09:47:27.951Z,36.89
2022-09-25T09:49:58.561Z,35.97
2022-09-25T09:52:30.848Z,35.76
2022-09-25T09:55:16.457Z,35.33
2022-09-25T09:57:45.339Z,34.19
2022-09-25T10:00:20.169Z,33.44
2022-09-25T10:02:49.824Z,33.76
2022-09-25T10:05:35.641Z,34.31
2022-09-25T10:08:02.478Z,33.58
2022-09-25T10:10:35.492Z,33.20
2022-09-25T10:13:06.778Z,32.25
2022-09-25T10:15:36.267Z,33.33
2022-09-25T10:18:03.639Z,34.09
2022-09-25T10:20:41.957Z,35.93
2022-09-25T10:23:28.317Z,37.91
2022-09-25T10:25:56.275Z,38.58
2022-09-25T10:28:23.792Z,39.51
2022-09-25T10:30:52.350Z,39.81
2022-09-25T10:33:23.362Z,39.88
2022-09-25T10:35:53.491Z,39.68
2022-09-25T10:38:29.828Z,39.05
2022-09-25T10:41:17.453Z,38.78
2022-09-25T10:43:52.294Z,39.50
2022-09-25T10:46:46.375Z,40.86
2022-09-25T10:49:41.884Z,40.24
2022-09-25T10:52:10.020Z,40.80
2022-09-25T10:54:43.717Z,41.27
2022-09-25T10:57:34.501Z,40.42
2022-09-25T11:00:04.079Z,39.62
2022-09-25T11:02:36.571Z,40.53
2022-09-25T11:05:04.699Z,40.56
2022-09-25T11:07:31.689Z,42.19
2022-09-25T11:10:00.351Z,41.69
2022-09-25T11:12:29.971Z,42.71
2022-09-25T11:14:59.114Z,43.64
2022-09-25T11:17:31.618Z,41.55
2022-09-25T11:20:16.250Z,42.30
2022-09-25T11:22:45.801Z,41.62
2022-09-25T11:25:17.633Z,41.16
2022-09-25T11:27:44.611Z,41.17
2022-09-25T11:30:12.496Z,40.57
2022-09-25T11:32:59.825Z,40.27
2022-09-25T11:35:42.251Z,39.62
2022-09-25T11:38:12.283Z,40.01
2022-09-25T11:41:12.948Z,41.17
2022-09-25T11:43:39.741Z,41.52
2022-09-25T11:46:19.087Z,41.99
2022-09-25T11:48:52.503Z,42.42
2022-09-25T11:51:19.464Z,42.66
2022-09-25T11:54:03.294Z,43.03
2022-09-25T11:56:50.179Z,44.14
2022-09-25T11:59:26.042Z,42.40
2022-09-25T12:01:56.405Z,42.65
2022-09-25T12:04:27.721Z,42.63
2022-09-25T12:07:00.563Z,40.93
2022-09-25T12:09:36.606Z,40.60
2022-09-25T12:12:17.265Z,39.77
2022-09-25T12:14:53.212Z,40.46
2022-09-25T12:17:28.070Z,41.18
2022-09-25T12:20:13.341Z,41.34
2022-09-25T12:23:03.287Z,40.20
2022-09-25T12:25:50.137Z,39.70
2022-09-25T12:28:20.324Z,39.91
2022-09-25T12:30:47.379Z,40.54
2022-09-25T12:33:32.710Z,41.19
2022-09-25T12:35:59.676Z,42.17
2022-09-25T12:38:44.808Z,43.39
2022-09-25T12:41:18.067Z,43.67
2022-09-25T12:43:47.943Z,42.36
2022-09-25T12:46:33.789Z,43.02
2022-09-25T12:49:00.578Z,42.88
2022-09-25T12:51:41.632Z,42.70
2022-09-25T12:54:24.141Z,41.76
2022-09-25T12:56:58.229Z,41.31
2022-09-25T12:59:36.335Z,41.90
2022-09-25T13:02:12.184Z,41.97
2022-09-25T13:04:57.567Z,41.95
2022-09-25T13:07:24.953Z,43.49
2022-09-25T13:09:51.725Z,43.93
2022-09-25T13:12:21.917Z,43.40
2022-09-25T13:14:58.143Z,43.03
2022-09-25T13:17:24.991Z,42.21
2022-09-25T13:19:51.976Z,42.39
2022-09-25T13:22:25.075Z,42.84
2022-09-25T13:25:03.925Z,42.19
2022-09-25T13:27:38.802Z,41.93
2022-09-25T13:30:06.900Z,42.92
2022-09-25T13:32:38.339Z,42.42
2022-09-25T13:35:07.178Z,42.34
2022-09-25T13:37:35.955Z,42.56
2022-09-25T13:40:28.371Z,41.74
2022-09-25T13:43:15.070Z,41.94
2022-09-25T13:45:42.237Z,42.64
2022-09-25T13:48:15.665Z,42.01
2022-09-25T13:50:46.420Z,41.36
2022-09-25T13:53:25.054Z,41.81
2022-09-25T13:55:56.044Z,41.54
2022-09-25T13:58:23.615Z,41.54
2022-09-25T14:00:58.005Z,41.80
2022-09-25T14:03:42.051Z,42.05
2022-09-25T14:06:18.132Z,41.33
2022-09-25T14:08:46.771Z,40.83
2022-09-25T14:11:16.037Z,39.90
2022-09-25T14:13:47.250Z,40.65
2022-09-25T14:16:26.330Z,40.89
2022-09-25T14:18:55.207Z,41.21
2022-09-25T14:21:25.070Z,41.42
2022-09-25T14:23:53.885Z,42.88
2022-09-25T14:26:26.016Z,42.81
2022-09-25T14:28:55.236Z,43.04
2022-09-25T14:31:38.103Z,42.94
2022-09-25T14:34:13.264Z,42.57
2022-09-25T14:37:04.283Z,43.80
2022-09-25T14:39:48.160Z,45.85
2022-09-25T14:42:17.610Z,46.60
2022-09-25T14:45:03.082Z,47.70
2022-09-25T14:47:37.198Z,48.60
2022-09-25T14:50:06.501Z,48.38
2022-09-25T14:52:36.631Z,48.68
2022-09-25T14:55:04.451Z,47.78
2022-09-25T14:57:35.338Z,47.96
2022-09-25T15:00:05.458Z,48.13
2022-09-25T15:02:45.109Z,47.55
2022-09-25T15:05:20.126Z,48.33
2022-09-25T15:07:48.681Z,47.30
2022-09-25T15:10:28.142Z,49.91
2022-09-25T15:12:56.050Z,49.00
2022-09-25T15:15:24.455Z,48.79
2022-09-25T15:17:58.384Z,49.40
2022-09-25T15:20:29.060Z,49.42
2022-09-25T15:22:59.162Z,49.87
2022-09-25T15:25:29.887Z,50.47
2022-09-25T15:28:00.162Z,50.11
2022-09-25T15:30:29.622Z,49.88
2022-09-25T15:33:00.887Z,50.90
2022-09-25T15:35:30.570Z,50.89
2022-09-25T15:38:14.645Z,50.13
2022-09-25T15:40:42.654Z,49.42
2022-09-25T15:43:16.749Z,49.70
2022-09-25T15:45:45.443Z,52.04
2022-09-25T15:48:14.105Z,51.53
2022-09-25T15:50:45.346Z,51.49
2022-09-25T15:53:26.167Z,53.54
2022-09-25T15:56:12.545Z,54.69
2022-09-25T15:58:45.682Z,55.94
2022-09-25T16:01:33.548Z,53.70
2022-09-25T16:04:20.408Z,57.24
2022-09-25T16:06:50.830Z,56.40
2022-09-25T16:09:23.247Z,57.33
2022-09-25T16:11:51.554Z,57.88
2022-09-25T16:14:23.019Z,58.55
2022-09-25T16:16:51.229Z,58.47
2022-09-25T16:19:26.800Z,59.84
2022-09-25T16:21:54.354Z,59.35
2022-09-25T16:24:26.415Z,59.67
2022-09-25T16:26:55.791Z,59.89
2022-09-25T16:29:26.192Z,60.57
2022-09-25T16:31:54.960Z,60.07
2022-09-25T16:34:26.865Z,60.48
2022-09-25T16:36:56.525Z,61.57
2022-09-25T16:39:32.295Z,62.79
2022-09-25T16:42:00.492Z,64.27
2022-09-25T16:44:31.557Z,63.95
2022-09-25T16:47:01.900Z,64.70
2022-09-25T16:49:29.490Z,64.53
2022-09-25T16:51:56.536Z,64.52
2022-09-25T16:54:31.111Z,64.69
2022-09-25T16:56:59.801Z,65.15
2022-09-25T16:59:28.371Z,64.72
2022-09-25T17:01:58.285Z,64.96
2022-09-25T17:04:28.593Z,65.05
2022-09-25T17:06:57.747Z,64.89
2022-09-25T17:09:27.223Z,65.29
2022-09-25T17:12:08.055Z,65.63
2022-09-25T17:14:35.352Z,66.12
2022-09-25T17:17:02.827Z,65.48
2022-09-25T17:19:29.724Z,65.75
2022-09-25T17:21:57.867Z,66.28
2022-09-25T17:24:26.841Z,66.69
2022-09-25T17:26:54.323Z,66.92
2022-09-25T17:29:21.703Z,66.93
2022-09-25T17:31:49.052Z,67.05
2022-09-25T17:34:16.179Z,68.04
2022-09-25T17:36:43.198Z,68.44
2022-09-25T17:39:10.448Z,69.16
2022-09-25T17:41:38.292Z,68.96
2022-09-25T17:44:05.769Z,68.43
2022-09-25T17:46:36.336Z,69.38
2022-09-25T17:49:04.684Z,70.54
2022-09-25T17:51:32.596Z,71.33
2022-09-25T17:54:02.359Z,70.96
2022-09-25T17:56:34.292Z,71.18
2022-09-25T17:59:02.493Z,70.99
2022-09-25T18:01:34.232Z,71.40
2022-09-25T18:04:21.028Z,72.16
2022-09-25T18:06:49.303Z,71.71
2022-09-25T18:09:17.847Z,72.02
2022-09-25T18:11:45.426Z,72.15
2022-09-25T18:14:12.949Z,71.84
2022-09-25T18:16:44.132Z,70.84
2022-09-25T18:19:34.778Z,70.20
2022-09-25T18:22:17.856Z,69.85
2022-09-25T18:24:46.076Z,69.58
2022-09-25T18:27:14.652Z,69.50
2022-09-25T18:29:42.086Z,68.11
2022-09-25T18:32:09.639Z,66.70
2022-09-25T18:34:37.598Z,66.34
2022-09-25T18:37:04.849Z,66.34
2022-09-25T18:39:32.837Z,66.36
2022-09-25T18:42:00.864Z,66.00
2022-09-25T18:44:30.000Z,66.24
2022-09-25T18:46:58.736Z,66.22
2022-09-25T18:49:26.843Z,67.51
2022-09-25T18:51:53.948Z,67.50
2022-09-25T18:54:21.382Z,67.34
2022-09-25T18:56:48.929Z,67.39
2022-09-25T18:59:16.308Z,68.21
2022-09-25T19:01:44.498Z,68.03
2022-09-25T19:04:16.126Z,68.56
2022-09-25T19:06:43.733Z,68.30
2022-09-25T19:09:16.429Z,68.75
2022-09-25T19:11:46.361Z,68.47
2022-09-25T19:14:15.361Z,68.74
2022-09-25T19:16:44.342Z,68.37
2022-09-25T19:19:12.697Z,68.66
2022-09-25T19:21:46.064Z,68.87
2022-09-25T19:24:15.793Z,68.63
2022-09-25T19:26:44.871Z,68.74
2022-09-25T19:29:12.767Z,69.25
2022-09-25T19:31:41.284Z,68.84
2022-09-25T19:34:10.222Z,69.27
2022-09-25T19:36:37.912Z,69.44
2022-09-25T19:39:05.054Z,69.78
2022-09-25T19:41:34.410Z,69.87
2022-09-25T19:44:06.876Z,69.86
2022-09-25T19:46:40.290Z,69.63
2022-09-25T19:49:07.520Z,69.54
2022-09-25T19:51:34.399Z,69.49
2022-09-25T19:54:01.479Z,69.41
2022-09-25T19:56:28.223Z,69.77
2022-09-25T19:58:55.545Z,69.26
2022-09-25T20:01:26.828Z,69.77
2022-09-25T20:03:57.052Z,69.57
2022-09-25T20:06:25.348Z,69.41
2022-09-25T20:09:01.022Z,69.98
2022-09-25T20:11:28.561Z,69.64
2022-09-25T20:13:55.548Z,69.98
2022-09-25T20:16:25.927Z,69.93
2022-09-25T20:18:55.699Z,69.77
2022-09-25T20:21:22.801Z,69.85
2022-09-25T20:23:51.164Z,69.94
2022-09-25T20:26:19.052Z,69.76
2022-09-25T20:28:46.413Z,69.90
2022-09-25T20:31:14.589Z,70.04
2022-09-25T20:33:42.449Z,70.18
2022-09-25T20:36:11.514Z,70.07
2022-09-25T20:38:38.544Z,70.19
2022-09-25T20:41:11.192Z,70.65
2022-09-25T20:43:38.659Z,70.47
2022-09-25T20:46:07.049Z,70.96
2022-09-25T20:48:38.095Z,70.93
2022-09-25T20:51:05.907Z,70.76
2022-09-25T20:53:33.209Z,71.30
2022-09-25T20:56:03.887Z,71.74
2022-09-25T20:58:31.204Z,71.40
2022-09-25T21:01:02.726Z,71.89
2022-09-25T21:03:33.300Z,72.33
2022-09-25T21:06:04.531Z,72.31
2022-09-25T21:08:31.468Z,73.20
2022-09-25T21:11:02.243Z,73.63
2022-09-25T21:13:30.131Z,73.06
2022-09-25T21:16:07.433Z,73.81
2022-09-25T21:18:35.901Z,74.06
2022-09-25T21:21:04.054Z,74.45
2022-09-25T21:23:31.100Z,74.13
2022-09-25T21:26:05.526Z,74.05
2022-09-25T21:28:33.004Z,74.06
2022-09-25T21:31:03.945Z,74.48
2022-09-25T21:33:30.881Z,74.62
2022-09-25T21:35:57.923Z,74.12
2022-09-25T21:38:24.729Z,73.68
2022-09-25T21:40:55.842Z,73.75
2022-09-25T21:43:22.901Z,74.14
2022-09-25T21:45:49.737Z,74.19
2022-09-25T21:48:16.520Z,74.43
2022-09-25T21:50:56.815Z,74.79
2022-09-25T21:53:24.128Z,75.95
2022-09-25T21:56:00.402Z,75.70
2022-09-25T21:58:27.483Z,76.42
2022-09-25T22:01:08.021Z,76.47
2022-09-25T22:03:35.603Z,76.33
2022-09-25T22:06:04.142Z,76.05
2022-09-25T22:08:31.532Z,75.70
2022-09-25T22:10:59.288Z,75.50
2022-09-25T22:13:27.179Z,75.87
2022-09-25T22:16:05.230Z,76.21
2022-09-25T22:18:33.691Z,75.68
2022-09-25T22:21:00.591Z,75.86
2022-09-25T22:23:27.583Z,75.44
2022-09-25T22:25:54.604Z,76.03
2022-09-25T22:28:21.590Z,76.03
2022-09-25T22:30:48.513Z,75.86
2022-09-25T22:33:15.501Z,76.13
2022-09-25T22:35:42.264Z,76.67
2022-09-25T22:38:09.078Z,76.49
2022-09-25T22:40:37.794Z,76.43
2022-09-25T22:43:05.270Z,77.06
2022-09-25T22:45:32.756Z,77.10
2022-09-25T22:47:59.983Z,77.25
2022-09-25T22:50:27.407Z,77.12
2022-09-25T22:52:58.537Z,77.13
2022-09-25T22:55:26.339Z,77.66
2022-09-25T22:57:53.143Z,77.87
2022-09-25T23:00:19.951Z,78.04
2022-09-25T23:02:47.162Z,77.88
2022-09-25T23:05:14.009Z,77.74
2022-09-25T23:07:40.979Z,78.19
2022-09-25T23:10:08.236Z,78.22
2022-09-25T23:12:35.008Z,77.90
2022-09-25T23:15:01.835Z,78.00
2022-09-25T23:17:29.152Z,78.38
2022-09-25T23:19:55.955Z,78.45
2022-09-25T23:22:22.791Z,78.41
2022-09-25T23:24:49.789Z,78.52
2022-09-25T23:27:16.610Z,78.13
2022-09-25T23:29:43.403Z,78.11
2022-09-25T23:32:10.488Z,78.33
2022-09-25T23:34:37.295Z,78.59
2022-09-25T23:37:04.250Z,78.41
2022-09-25T23:39:31.271Z,78.70
2022-09-25T23:41:58.044Z,78.68
2022-09-25T23:44:24.916Z,78.92
2022-09-25T23:46:51.896Z,78.84
2022-09-25T23:49:18.699Z,78.93
2022-09-25T23:51:46.400Z,79.39
2022-09-25T23:54:13.698Z,79.33
2022-09-25T23:56:41.242Z,79.36
2022-09-25T23:59:09.499Z,79.39
